KNRS/NRS METAR and TAF weather

Enter ICAO airport designator
Station Type Date Time Source
KNRS METAR 2021/06/24 05:56 UTC NOAA

KNRS 240556Z 31005KT 10SM BKN017 BKN130 20/18 A3002 RMK AO2 SLP164 T02000183 10217 20189 50009 $


Station Type Date Time Source
KNRS Decoded METAR 2021/06/24 05:56 UTC NOAA

IMPERIAL BEACH, NOLF, CA, United States (KNRS) 32-34N 117-07W 5M
Jun 24, 2021 - 01:56 AM EDT / 2021.06.24 0556 UTC
Wind: from the NW (310 degrees) at 6 MPH (5 KT):0
Visibility: 10 mile(s):0
Sky conditions: mostly cloudy
Temperature: 68.0 F (20.0 C)
Dew Point: 64.9 F (18.3 C)
Relative Humidity: 89%
Pressure (altimeter): 30.02 in. Hg (1016 hPa)
Pressure tendency: 0.03 inches (0.9 hPa) higher than three hours ago
ob: KNRS 240556Z 31005KT 10SM BKN017 BKN130 20/18 A3002 RMK AO2 SLP164 T02000183 10217 20189 50009
cycle: 6

Station Type Date Time Source
KNRS TAF UTC NOAA

Error!

Example: see airport list